Arklow Mill — EIJD9 — position and weather

sailwx.info

Track history (hours):
 
Tides and Currents Weather Stations Pressure Air Temp Water Temp Dewpoint Dewpoint Depression Visibility Wind Speed Wind Dir Waves Ship Positions

Arklow Mill

Last reported at 2014-Aug-26 23:31 UTC. Time now 2014-Aug-31 06:35 UTC.
Position N 49°27' E 000°40'.

Length 137 m; draft 8.4 m.

Type: Ship. MMSI: 250002022.

Date/timePositionNaut miles runAvg speedWind from/ knotsBaromVisibWave heightAir tempDewpointWater temp
2014-Aug-26 23:31N 49°27' E 000°40'8 8.3
2014-Aug-26 22:32N 49°28' E 000°28'1111.2
2014-Aug-26 21:33N 49°26' E 000°11'1010.1
2014-Aug-26 20:33N 49°28' W 000°04'1 0.6
2014-Aug-26 19:31N 49°28' W 000°05'0 0.1
2014-Aug-26 18:31N 49°28' W 000°05'0 0.1
2014-Aug-26 17:28N 49°28' W 000°05'0 0.0
2014-Aug-26 16:25N 49°28' W 000°05'0 0.0
2014-Aug-26 15:28N 49°28' W 000°05'0 0.1
2014-Aug-26 14:19N 49°28' W 000°05'0 0.1
2014-Aug-26 13:31N 49°28' W 000°05'0 0.0
2014-Aug-26 12:28N 49°28' W 000°05'0 0.0
2014-Aug-26 11:31N 49°28' W 000°05'0 0.0
2014-Aug-26 10:31N 49°28' W 000°05'0 0.0
2014-Aug-26 09:22N 49°28' W 000°05'0 0.0
2014-Aug-26 08:31N 49°28' W 000°05'0 0.0
2014-Aug-26 07:31N 49°28' W 000°05'0 0.0
2014-Aug-26 06:31N 49°28' W 000°05'0 0.1
2014-Aug-26 05:31N 49°28' W 000°05'0 0.1
2014-Aug-26 04:25N 49°28' W 000°05'0 0.0
2014-Aug-26 03:31N 49°28' W 000°05'0 0.0
2014-Aug-26 02:31N 49°28' W 000°05'0 0.0
2014-Aug-26 01:31N 49°28' W 000°05'0 0.1
2014-Aug-26 00:31N 49°28' W 000°05'0 0.0
2014-Aug-25 23:31N 49°28' W 000°05'0 0.0
2014-Aug-25 22:31N 49°28' W 000°05'0 0.0
2014-Aug-25 21:22N 49°28' W 000°05'0 0.0
2014-Aug-25 20:31N 49°28' W 000°05'0 0.0
2014-Aug-25 19:28N 49°28' W 000°05'0 0.0
2014-Aug-25 18:28N 49°28' W 000°05'0 0.1
2014-Aug-25 17:28N 49°28' W 000°05'0 0.1
2014-Aug-25 16:31N 49°28' W 000°05'0 0.0
2014-Aug-25 15:28N 49°28' W 000°05'0 0.0
2014-Aug-25 14:31N 49°28' W 000°05'0 0.0
2014-Aug-25 13:31N 49°28' W 000°05'0 0.0
2014-Aug-25 12:28N 49°28' W 000°05'0 0.0
2014-Aug-25 11:31N 49°28' W 000°05'0 0.0
2014-Aug-25 10:31N 49°28' W 000°05'0 0.0
2014-Aug-25 09:31N 49°28' W 000°05'0 0.0
2014-Aug-25 08:28N 49°28' W 000°05'0 0.0
2014-Aug-25 07:31N 49°28' W 000°05'0 0.0
2014-Aug-25 06:31N 49°28' W 000°05'0 0.0
2014-Aug-25 05:31N 49°28' W 000°05'0 0.0
2014-Aug-25 04:28N 49°28' W 000°05'0 0.1
2014-Aug-25 03:31N 49°28' W 000°05'0 0.0
2014-Aug-25 02:31N 49°28' W 000°05'0 0.0
2014-Aug-25 01:31N 49°28' W 000°05'0 0.0
2014-Aug-25 00:31N 49°28' W 000°05'0 0.0
2014-Aug-24 23:31N 49°28' W 000°05'0 0.1
2014-Aug-24 22:28N 49°28' W 000°05'0 0.0
2014-Aug-24 21:31N 49°28' W 000°05'0 0.0
2014-Aug-24 20:31N 49°28' W 000°05'0 0.0
2014-Aug-24 19:31N 49°28' W 000°05'0 0.0
2014-Aug-24 18:31N 49°28' W 000°05'0 0.1
2014-Aug-24 17:28N 49°28' W 000°05'0 0.0
2014-Aug-24 16:28N 49°28' W 000°05'0 0.0
2014-Aug-24 15:31N 49°28' W 000°05'0 0.1
2014-Aug-24 14:33N 49°28' W 000°05'8 7.8
2014-Aug-24 13:33N 49°35' W 000°11'5510.5
2014-Aug-24 08:21N 50°29' E 000°04'910.0
2014-Aug-24 07:29N 50°31' E 000°17'1010.6
2014-Aug-24 06:33N 50°34' E 000°32'1211.7
2014-Aug-24 05:33N 50°40' E 000°48'2612.9
2014-Aug-24 03:32N 50°56' E 001°20'1212.0
2014-Aug-24 02:33N 51°05' E 001°33'8 7.7
2014-Aug-24 01:33N 51°03' E 001°45'9 9.4
2014-Aug-24 00:33N 51°02' E 002°00'7 1.7
2014-Aug-23 20:26N 51°00' E 002°11'0 0.0
2014-Aug-23 19:29N 51°00' E 002°11'0 0.0
2014-Aug-23 03:32N 51°00' E 002°11'0 0.0
2014-Aug-23 02:26N 51°00' E 002°11'0 0.0
2014-Aug-23 00:29N 51°00' E 002°11'0 0.0
2014-Aug-22 23:26N 51°00' E 002°11'0 0.0
2014-Aug-22 22:17N 51°00' E 002°11'0 0.0
2014-Aug-22 20:29N 51°00' E 002°11'0 0.0
2014-Aug-22 19:17N 51°00' E 002°11'0 0.0
2014-Aug-22 18:32N 51°00' E 002°11'0 0.0
2014-Aug-22 17:29N 51°00' E 002°11'0 0.0
2014-Aug-22 16:32N 51°00' E 002°11'0 0.0
2014-Aug-22 15:32N 51°00' E 002°11'0 0.0
2014-Aug-22 14:32N 51°00' E 002°11'0 0.0
2014-Aug-22 13:08N 51°00' E 002°11'0 0.0
2014-Aug-22 12:20N 51°00' E 002°11'0 0.0
2014-Aug-22 11:23N 51°00' E 002°11'0 0.0
2014-Aug-22 10:26N 51°00' E 002°11'0 0.0
2014-Aug-22 08:20N 51°00' E 002°11'0 0.0
2014-Aug-22 07:32N 51°00' E 002°11'0 0.0
2014-Aug-22 06:32N 51°00' E 002°11'0 0.0
2014-Aug-22 05:29N 51°00' E 002°11'0 0.0
2014-Aug-22 04:17N 51°00' E 002°11'0 0.0
2014-Aug-22 03:17N 51°00' E 002°11'0 0.0
2014-Aug-22 01:29N 51°00' E 002°11'0 0.0
2014-Aug-22 00:23N 51°00' E 002°11'0 0.0
2014-Aug-21 23:29N 51°00' E 002°11'0 0.0
2014-Aug-21 22:17N 51°00' E 002°11'0 0.0
2014-Aug-21 21:23N 51°00' E 002°11'0 0.0
2014-Aug-21 20:23N 51°00' E 002°11'0 0.0
2014-Aug-21 19:32N 51°00' E 002°11'0 0.0
2014-Aug-21 18:32N 51°00' E 002°11'0 0.0
2014-Aug-21 17:32N 51°00' E 002°11'0 0.0
2014-Aug-21 16:32N 51°00' E 002°11'0 0.0
2014-Aug-21 15:32N 51°00' E 002°11'0 0.0
2014-Aug-21 14:29N 51°00' E 002°11'0 0.0
2014-Aug-21 13:32N 51°00' E 002°11'0 0.0
2014-Aug-21 12:23N 51°00' E 002°11'0 0.0
2014-Aug-21 11:32N 51°00' E 002°11'0 0.0
2014-Aug-21 10:32N 51°00' E 002°11'0 0.0
2014-Aug-21 09:32N 51°00' E 002°11'4 4.2
2014-Aug-21 08:31N 51°03' E 002°05'9 9.4
2014-Aug-21 07:33N 51°03' E 001°51'29 5.4
2014-Aug-21 02:09N 50°41' E 001°20'6 9.2
2014-Aug-21 01:27N 50°37' E 001°13'13 9.5
2014-Aug-21 00:07N 50°29' E 000°58'5 9.7
2014-Aug-20 23:33N 50°27' E 000°49'10 9.8
2014-Aug-20 22:33N 50°25' E 000°34'36810.2
2014-Aug-19 10:33N 51°06' W 009°04'1312.6
2014-Aug-19 09:33N 51°10' W 009°23'1312.6
2014-Aug-19 08:33N 51°14' W 009°42'1211.9
2014-Aug-19 07:33N 51°21' W 009°58'1211.9
2014-Aug-19 06:33N 51°29' W 010°13'3511.5
2014-Aug-19 03:31N 51°57' W 010°45'1111.3
2014-Aug-19 02:33N 52°08' W 010°42'1411.6
2014-Aug-19 01:21N 52°16' W 010°23'1011.5
2014-Aug-19 00:28N 52°22' W 010°10'1511.3
2014-Aug-18 23:10N 52°30' W 009°50'  
Track history (hours):
 
Tides and Currents Weather Stations Pressure Air Temp Water Temp Dewpoint Dewpoint Depression Visibility Wind Speed Wind Dir Waves Ship Positions

Arklow Mill

Last reported at 2014-Aug-26 23:31 UTC. Time now 2014-Aug-31 06:35 UTC.
Position N 49°27' E 000°40'.

Length 137 m; draft 8.4 m.

Type: Ship. MMSI: 250002022.

Date/timePositionNaut miles runAvg speedWind from/ knotsBaromVisibWave heightAir tempDewpointWater temp
2014-Aug-26 23:31N 49°27' E 000°40'8 8.3
2014-Aug-26 22:32N 49°28' E 000°28'1111.2
2014-Aug-26 21:33N 49°26' E 000°11'1010.1
2014-Aug-26 20:33N 49°28' W 000°04'1 0.6
2014-Aug-26 19:31N 49°28' W 000°05'0 0.1
2014-Aug-26 18:31N 49°28' W 000°05'0 0.1
2014-Aug-26 17:28N 49°28' W 000°05'0 0.0
2014-Aug-26 16:25N 49°28' W 000°05'0 0.0
2014-Aug-26 15:28N 49°28' W 000°05'0 0.1
2014-Aug-26 14:19N 49°28' W 000°05'0 0.1
2014-Aug-26 13:31N 49°28' W 000°05'0 0.0
2014-Aug-26 12:28N 49°28' W 000°05'0 0.0
2014-Aug-26 11:31N 49°28' W 000°05'0 0.0
2014-Aug-26 10:31N 49°28' W 000°05'0 0.0
2014-Aug-26 09:22N 49°28' W 000°05'0 0.0
2014-Aug-26 08:31N 49°28' W 000°05'0 0.0
2014-Aug-26 07:31N 49°28' W 000°05'0 0.0
2014-Aug-26 06:31N 49°28' W 000°05'0 0.1
2014-Aug-26 05:31N 49°28' W 000°05'0 0.1
2014-Aug-26 04:25N 49°28' W 000°05'0 0.0
2014-Aug-26 03:31N 49°28' W 000°05'0 0.0
2014-Aug-26 02:31N 49°28' W 000°05'0 0.0
2014-Aug-26 01:31N 49°28' W 000°05'0 0.1
2014-Aug-26 00:31N 49°28' W 000°05'0 0.0
2014-Aug-25 23:31N 49°28' W 000°05'0 0.0
2014-Aug-25 22:31N 49°28' W 000°05'0 0.0
2014-Aug-25 21:22N 49°28' W 000°05'0 0.0
2014-Aug-25 20:31N 49°28' W 000°05'0 0.0
2014-Aug-25 19:28N 49°28' W 000°05'0 0.0
2014-Aug-25 18:28N 49°28' W 000°05'0 0.1
2014-Aug-25 17:28N 49°28' W 000°05'0 0.1
2014-Aug-25 16:31N 49°28' W 000°05'0 0.0
2014-Aug-25 15:28N 49°28' W 000°05'0 0.0
2014-Aug-25 14:31N 49°28' W 000°05'0 0.0
2014-Aug-25 13:31N 49°28' W 000°05'0 0.0
2014-Aug-25 12:28N 49°28' W 000°05'0 0.0
2014-Aug-25 11:31N 49°28' W 000°05'0 0.0
2014-Aug-25 10:31N 49°28' W 000°05'0 0.0
2014-Aug-25 09:31N 49°28' W 000°05'0 0.0
2014-Aug-25 08:28N 49°28' W 000°05'0 0.0
2014-Aug-25 07:31N 49°28' W 000°05'0 0.0
2014-Aug-25 06:31N 49°28' W 000°05'0 0.0
2014-Aug-25 05:31N 49°28' W 000°05'0 0.0
2014-Aug-25 04:28N 49°28' W 000°05'0 0.1
2014-Aug-25 03:31N 49°28' W 000°05'0 0.0
2014-Aug-25 02:31N 49°28' W 000°05'0 0.0
2014-Aug-25 01:31N 49°28' W 000°05'0 0.0
2014-Aug-25 00:31N 49°28' W 000°05'0 0.0
2014-Aug-24 23:31N 49°28' W 000°05'0 0.1
2014-Aug-24 22:28N 49°28' W 000°05'0 0.0
2014-Aug-24 21:31N 49°28' W 000°05'0 0.0
2014-Aug-24 20:31N 49°28' W 000°05'0 0.0
2014-Aug-24 19:31N 49°28' W 000°05'0 0.0
2014-Aug-24 18:31N 49°28' W 000°05'0 0.1
2014-Aug-24 17:28N 49°28' W 000°05'0 0.0
2014-Aug-24 16:28N 49°28' W 000°05'0 0.0
2014-Aug-24 15:31N 49°28' W 000°05'0 0.1
2014-Aug-24 14:33N 49°28' W 000°05'8 7.8
2014-Aug-24 13:33N 49°35' W 000°11'5510.5
2014-Aug-24 08:21N 50°29' E 000°04'910.0
2014-Aug-24 07:29N 50°31' E 000°17'1010.6
2014-Aug-24 06:33N 50°34' E 000°32'1211.7
2014-Aug-24 05:33N 50°40' E 000°48'2612.9
2014-Aug-24 03:32N 50°56' E 001°20'1212.0
2014-Aug-24 02:33N 51°05' E 001°33'8 7.7
2014-Aug-24 01:33N 51°03' E 001°45'9 9.4
2014-Aug-24 00:33N 51°02' E 002°00'7 1.7
2014-Aug-23 20:26N 51°00' E 002°11'0 0.0
2014-Aug-23 19:29N 51°00' E 002°11'0 0.0
2014-Aug-23 03:32N 51°00' E 002°11'0 0.0
2014-Aug-23 02:26N 51°00' E 002°11'0 0.0
2014-Aug-23 00:29N 51°00' E 002°11'0 0.0
2014-Aug-22 23:26N 51°00' E 002°11'0 0.0
2014-Aug-22 22:17N 51°00' E 002°11'0 0.0
2014-Aug-22 20:29N 51°00' E 002°11'0 0.0
2014-Aug-22 19:17N 51°00' E 002°11'0 0.0
2014-Aug-22 18:32N 51°00' E 002°11'0 0.0
2014-Aug-22 17:29N 51°00' E 002°11'0 0.0
2014-Aug-22 16:32N 51°00' E 002°11'0 0.0
2014-Aug-22 15:32N 51°00' E 002°11'0 0.0
2014-Aug-22 14:32N 51°00' E 002°11'0 0.0
2014-Aug-22 13:08N 51°00' E 002°11'0 0.0
2014-Aug-22 12:20N 51°00' E 002°11'0 0.0
2014-Aug-22 11:23N 51°00' E 002°11'0 0.0
2014-Aug-22 10:26N 51°00' E 002°11'0 0.0
2014-Aug-22 08:20N 51°00' E 002°11'0 0.0
2014-Aug-22 07:32N 51°00' E 002°11'0 0.0
2014-Aug-22 06:32N 51°00' E 002°11'0 0.0
2014-Aug-22 05:29N 51°00' E 002°11'0 0.0
2014-Aug-22 04:17N 51°00' E 002°11'0 0.0
2014-Aug-22 03:17N 51°00' E 002°11'0 0.0
2014-Aug-22 01:29N 51°00' E 002°11'0 0.0
2014-Aug-22 00:23N 51°00' E 002°11'0 0.0
2014-Aug-21 23:29N 51°00' E 002°11'0 0.0
2014-Aug-21 22:17N 51°00' E 002°11'0 0.0
2014-Aug-21 21:23N 51°00' E 002°11'0 0.0
2014-Aug-21 20:23N 51°00' E 002°11'0 0.0
2014-Aug-21 19:32N 51°00' E 002°11'0 0.0
2014-Aug-21 18:32N 51°00' E 002°11'0 0.0
2014-Aug-21 17:32N 51°00' E 002°11'0 0.0
2014-Aug-21 16:32N 51°00' E 002°11'0 0.0
2014-Aug-21 15:32N 51°00' E 002°11'0 0.0
2014-Aug-21 14:29N 51°00' E 002°11'0 0.0
2014-Aug-21 13:32N 51°00' E 002°11'0 0.0
2014-Aug-21 12:23N 51°00' E 002°11'0 0.0
2014-Aug-21 11:32N 51°00' E 002°11'0 0.0
2014-Aug-21 10:32N 51°00' E 002°11'0 0.0
2014-Aug-21 09:32N 51°00' E 002°11'4 4.2
2014-Aug-21 08:31N 51°03' E 002°05'9 9.4
2014-Aug-21 07:33N 51°03' E 001°51'29 5.4
2014-Aug-21 02:09N 50°41' E 001°20'6 9.2
2014-Aug-21 01:27N 50°37' E 001°13'13 9.5
2014-Aug-21 00:07N 50°29' E 000°58'5 9.7
2014-Aug-20 23:33N 50°27' E 000°49'10 9.8
2014-Aug-20 22:33N 50°25' E 000°34'36810.2
2014-Aug-19 10:33N 51°06' W 009°04'1312.6
2014-Aug-19 09:33N 51°10' W 009°23'1312.6
2014-Aug-19 08:33N 51°14' W 009°42'1211.9
2014-Aug-19 07:33N 51°21' W 009°58'1211.9
2014-Aug-19 06:33N 51°29' W 010°13'3511.5
2014-Aug-19 03:31N 51°57' W 010°45'1111.3
2014-Aug-19 02:33N 52°08' W 010°42'1411.6
2014-Aug-19 01:21N 52°16' W 010°23'1011.5
2014-Aug-19 00:28N 52°22' W 010°10'1511.3
2014-Aug-18 23:10N 52°30' W 009°50'  

Dump ship's entire track history